This is the latest recevied weather packets stored in our database for station/object JE7UPL-13. If no packets are shown the sender has not sent any weather packets the latest 10 day(s).
| Time | Temp. | Humidity | Pressure | Rain* | Wind** | Luminosity | Snow |
|---|---|---|---|---|---|---|---|
| 1778116504 | 22.78° C | 35% | 1007.4 hPa | 0 mm | - | - | - |
| 1778115606 | 23.33° C | 34% | 1007.7 hPa | 0 mm | - | - | - |
| 1778114705 | 23.33° C | 33% | 1007.7 hPa | 0 mm | - | - | - |
| 1778113805 | 23.89° C | 34% | 1007.6 hPa | 0 mm | - | - | - |
| 1778112905 | 22.78° C | 34% | 1007.8 hPa | 0 mm | - | - | - |
| 1778112005 | 21.67° C | 36% | 1007.9 hPa | 0 mm | - | - | - |
| 1778111104 | 21.67° C | 36% | 1008.3 hPa | 0 mm | - | - | - |
| 1778110205 | 21.67° C | 36% | 1008.5 hPa | 0 mm | - | - | - |
| 1778109304 | 21.67° C | 38% | 1008.5 hPa | 0 mm | - | - | - |
| 1778108405 | 21.11° C | 38% | 1008.9 hPa | 0 mm | - | - | - |
| 1778107505 | 21.67° C | 38% | 1009 hPa | 0 mm | - | - | - |
| 1778106605 | 21.11° C | 40% | 1009.2 hPa | 0 mm | - | - | - |
| 1778105705 | 20.56° C | 40% | 1009.2 hPa | 0 mm | - | - | - |
| 1778104805 | 20.56° C | 40% | 1009.4 hPa | 0 mm | - | - | - |
| 1778103905 | 20° C | 42% | 1009.5 hPa | 0 mm | - | - | - |
| 1778103005 | 19.44° C | 43% | 1009.4 hPa | 0 mm | - | - | - |
| 1778102105 | 18.89° C | 49% | 1009.5 hPa | 0 mm | - | - | - |
| 1778101205 | 17.78° C | 59% | 1009.5 hPa | 0 mm | - | - | - |
| 1778100305 | 15.56° C | 69% | 1009.6 hPa | 0 mm | - | - | - |
| 1778099405 | 12.22° C | 76% | 1009.5 hPa | 0 mm | - | - | - |
| 1778098505 | 10.56° C | 79% | 1009.7 hPa | 0 mm | - | - | - |
| 1778097605 | 10.56° C | 79% | 1009.7 hPa | 0 mm | - | - | - |
| 1778096705 | 10° C | 79% | 1010 hPa | 0 mm | - | - | - |
| 1778095805 | 10.56° C | 80% | 1010 hPa | 0 mm | - | - | - |
| 1778094904 | 9.44° C | 79% | 1009.9 hPa | 0 mm | - | - | - |
* Rain latest hour (hover to see other rain measurements)
** Current wind speed in m/s (hover to see current wind gust speed)